createdAt,value
2023-05-07T00:00:22.551Z,15.55
2023-05-07T00:02:49.277Z,15.58
2023-05-07T00:05:16.506Z,15.08
2023-05-07T00:07:43.306Z,14.64
2023-05-07T00:10:11.849Z,14.60
2023-05-07T00:12:39.028Z,14.78
2023-05-07T00:15:06.661Z,14.99
2023-05-07T00:17:34.445Z,15.05
2023-05-07T00:20:01.120Z,15.09
2023-05-07T00:22:27.768Z,15.04
2023-05-07T00:24:54.404Z,15.17
2023-05-07T00:27:21.011Z,15.16
2023-05-07T00:29:47.674Z,15.17
2023-05-07T00:32:14.523Z,15.07
2023-05-07T00:34:41.390Z,14.74
2023-05-07T00:37:07.997Z,13.48
2023-05-07T00:39:34.832Z,13.71
2023-05-07T00:42:01.796Z,14.07
2023-05-07T00:44:28.433Z,14.49
2023-05-07T00:46:55.310Z,14.74
2023-05-07T00:49:22.533Z,14.73
2023-05-07T00:51:49.534Z,14.86
2023-05-07T00:54:16.294Z,15.01
2023-05-07T00:56:43.115Z,14.94
2023-05-07T00:59:10.058Z,14.89
2023-05-07T01:01:36.816Z,14.79
2023-05-07T01:04:03.583Z,14.80
2023-05-07T01:06:33.424Z,14.67
2023-05-07T01:09:01.757Z,14.76
2023-05-07T01:11:29.002Z,14.89
2023-05-07T01:13:55.967Z,14.70
2023-05-07T01:16:22.885Z,14.73
2023-05-07T01:18:49.672Z,14.72
2023-05-07T01:21:18.954Z,14.82
2023-05-07T01:23:46.143Z,14.60
2023-05-07T01:26:12.839Z,14.53
2023-05-07T01:28:40.366Z,14.43
2023-05-07T01:31:08.090Z,14.38
2023-05-07T01:33:37.077Z,14.38
2023-05-07T01:36:04.998Z,14.17
2023-05-07T01:38:32.129Z,14.09
2023-05-07T01:40:59.383Z,14.21
2023-05-07T01:43:26.562Z,14.25
2023-05-07T01:45:53.841Z,14.23
2023-05-07T01:48:20.555Z,14.29
2023-05-07T01:50:47.424Z,14.23
2023-05-07T01:53:14.042Z,14.23
2023-05-07T01:55:40.701Z,14.19
2023-05-07T01:58:07.329Z,14.20
2023-05-07T02:00:34.081Z,14.24
2023-05-07T02:03:00.903Z,14.20
2023-05-07T02:05:27.795Z,14.13
2023-05-07T02:07:54.389Z,14.07
2023-05-07T02:10:21.135Z,14.02
2023-05-07T02:12:47.745Z,14.12
2023-05-07T02:15:14.466Z,14.18
2023-05-07T02:17:59.732Z,14.20
2023-05-07T02:20:26.604Z,14.08
2023-05-07T02:22:53.384Z,14.07
2023-05-07T02:25:20.103Z,14.15
2023-05-07T02:27:46.720Z,14.12
2023-05-07T02:30:13.623Z,13.95
2023-05-07T02:32:40.291Z,13.89
2023-05-07T02:35:07.176Z,14.07
2023-05-07T02:37:33.883Z,13.97
2023-05-07T02:40:00.479Z,13.79
2023-05-07T02:42:27.311Z,13.40
2023-05-07T02:44:53.966Z,13.46
2023-05-07T02:47:20.594Z,13.50
2023-05-07T02:49:47.246Z,13.66
2023-05-07T02:52:13.838Z,13.65
2023-05-07T02:54:40.449Z,13.84
2023-05-07T02:57:07.082Z,13.78
2023-05-07T02:59:33.798Z,13.63
2023-05-07T03:02:00.521Z,13.64
2023-05-07T03:04:27.176Z,13.55
2023-05-07T03:06:53.938Z,13.60
2023-05-07T03:09:20.528Z,13.95
2023-05-07T03:11:47.329Z,13.78
2023-05-07T03:14:13.979Z,14.03
2023-05-07T03:16:40.714Z,14.11
2023-05-07T03:19:07.462Z,13.98
2023-05-07T03:21:34.206Z,14.08
2023-05-07T03:24:01.319Z,13.73
2023-05-07T03:26:27.995Z,13.69
2023-05-07T03:28:54.641Z,13.31
2023-05-07T03:31:21.438Z,13.22
2023-05-07T03:33:56.050Z,13.45
2023-05-07T03:36:22.922Z,13.62
2023-05-07T03:38:50.408Z,13.60
2023-05-07T03:41:17.212Z,13.28
2023-05-07T03:43:43.858Z,13.16
2023-05-07T03:46:10.512Z,13.03
2023-05-07T03:48:37.196Z,13.17
2023-05-07T03:51:03.896Z,13.13
2023-05-07T03:53:30.564Z,13.35
2023-05-07T03:55:57.296Z,13.30
2023-05-07T03:58:23.906Z,13.44
2023-05-07T04:00:50.542Z,13.26
2023-05-07T04:03:18.134Z,13.25
2023-05-07T04:05:44.807Z,13.28
2023-05-07T04:08:11.445Z,13.15
2023-05-07T04:10:38.068Z,12.79
2023-05-07T04:13:04.722Z,12.71
2023-05-07T04:15:31.409Z,12.76
2023-05-07T04:17:58.117Z,12.89
2023-05-07T04:20:24.735Z,12.94
2023-05-07T04:22:51.460Z,13.34
2023-05-07T04:25:18.097Z,13.27
2023-05-07T04:27:44.736Z,13.27
2023-05-07T04:30:12.366Z,13.19
2023-05-07T04:32:39.232Z,13.18
2023-05-07T04:35:06.232Z,13.09
2023-05-07T04:37:33.657Z,13.48
2023-05-07T04:40:00.280Z,13.41
2023-05-07T04:42:26.940Z,13.28
2023-05-07T04:44:54.310Z,13.20
2023-05-07T04:47:20.951Z,13.21
2023-05-07T04:49:47.761Z,13.12
2023-05-07T04:52:14.390Z,13.01
2023-05-07T04:54:41.047Z,13.34
2023-05-07T04:57:10.576Z,13.11
2023-05-07T04:59:37.297Z,13.62
2023-05-07T05:02:04.059Z,13.47
2023-05-07T05:04:31.202Z,13.31
2023-05-07T05:06:57.880Z,13.21
2023-05-07T05:09:24.525Z,12.95
2023-05-07T05:11:51.392Z,13.12
2023-05-07T05:14:18.243Z,13.08
2023-05-07T05:16:44.827Z,13.20
2023-05-07T05:19:11.473Z,13.55
2023-05-07T05:21:38.224Z,13.55
2023-05-07T05:24:04.982Z,13.67
2023-05-07T05:26:31.637Z,13.63
2023-05-07T05:28:58.309Z,13.64
2023-05-07T05:31:25.009Z,13.77
2023-05-07T05:33:51.723Z,13.87
2023-05-07T05:36:18.654Z,14.18
2023-05-07T05:38:45.278Z,13.82
2023-05-07T05:41:11.974Z,13.92
2023-05-07T05:43:38.696Z,13.97
2023-05-07T05:46:05.645Z,13.95
2023-05-07T05:48:32.373Z,13.89
2023-05-07T05:50:59.137Z,14.09
2023-05-07T05:53:25.828Z,13.93
2023-05-07T05:55:52.468Z,13.94
2023-05-07T05:58:19.253Z,13.96
2023-05-07T06:00:46.813Z,14.09
2023-05-07T06:03:14.369Z,14.25
2023-05-07T06:05:41.336Z,14.52
2023-05-07T06:08:08.036Z,14.80
2023-05-07T06:10:34.694Z,15.02
2023-05-07T06:13:01.372Z,14.92
2023-05-07T06:15:28.219Z,15.16
2023-05-07T06:17:54.916Z,14.90
2023-05-07T06:20:21.583Z,14.89
2023-05-07T06:22:48.270Z,14.91
2023-05-07T06:25:15.250Z,14.95
2023-05-07T06:27:41.940Z,15.24
2023-05-07T06:30:09.962Z,15.33
2023-05-07T06:32:37.884Z,15.85
2023-05-07T06:35:04.821Z,15.76
2023-05-07T06:37:31.435Z,15.83
2023-05-07T06:40:07.599Z,15.46
2023-05-07T06:42:34.667Z,15.63
2023-05-07T06:45:01.294Z,15.46
2023-05-07T06:47:28.049Z,15.72
2023-05-07T06:49:54.662Z,16.20
2023-05-07T06:52:21.303Z,16.33
2023-05-07T06:54:48.017Z,16.54
2023-05-07T06:57:14.650Z,16.66
2023-05-07T06:59:41.232Z,16.95
2023-05-07T07:02:07.946Z,16.66
2023-05-07T07:04:34.602Z,16.75
2023-05-07T07:07:01.399Z,16.62
2023-05-07T07:09:27.992Z,17.09
2023-05-07T07:11:54.596Z,16.82
2023-05-07T07:14:21.211Z,16.87
2023-05-07T07:16:47.854Z,17.04
2023-05-07T07:19:15.083Z,17.10
2023-05-07T07:21:42.604Z,17.00
2023-05-07T07:24:09.220Z,17.30
2023-05-07T07:26:35.863Z,17.23
2023-05-07T07:29:02.570Z,17.57
2023-05-07T07:31:29.308Z,17.62
2023-05-07T07:33:56.048Z,17.32
2023-05-07T07:36:27.271Z,17.49
2023-05-07T07:38:58.662Z,17.98
2023-05-07T07:41:25.283Z,17.84
2023-05-07T07:43:51.878Z,17.79
2023-05-07T07:46:18.613Z,17.57
2023-05-07T07:48:45.226Z,17.76
2023-05-07T07:51:11.869Z,17.91
2023-05-07T07:53:38.430Z,18.46
2023-05-07T07:56:05.968Z,17.90
2023-05-07T07:58:32.746Z,18.10
2023-05-07T08:00:59.390Z,17.83
2023-05-07T08:03:26.193Z,17.91
2023-05-07T08:05:55.875Z,18.13
2023-05-07T08:08:22.465Z,18.16
2023-05-07T08:10:49.173Z,18.67
2023-05-07T08:13:19.494Z,18.47
2023-05-07T08:15:46.213Z,18.24
2023-05-07T08:18:12.867Z,18.24
2023-05-07T08:20:39.694Z,18.35
2023-05-07T08:23:06.560Z,18.61
2023-05-07T08:25:34.672Z,18.37
2023-05-07T08:28:01.871Z,18.20
2023-05-07T08:30:28.571Z,18.46
2023-05-07T08:32:55.342Z,18.11
2023-05-07T08:35:22.080Z,18.29
2023-05-07T08:37:48.923Z,17.96
2023-05-07T08:40:16.056Z,18.08
2023-05-07T08:42:43.095Z,18.05
2023-05-07T08:45:11.692Z,18.55
2023-05-07T08:48:02.160Z,18.91
2023-05-07T08:50:29.053Z,18.43
2023-05-07T08:52:56.361Z,18.55
2023-05-07T08:55:24.247Z,18.17
2023-05-07T08:57:51.306Z,18.41
2023-05-07T09:00:18.040Z,18.73
2023-05-07T09:02:44.812Z,18.76
2023-05-07T09:05:11.685Z,18.80
2023-05-07T09:07:38.582Z,18.15
2023-05-07T09:10:06.501Z,18.46
2023-05-07T09:12:33.578Z,18.64
2023-05-07T09:15:00.444Z,18.44
2023-05-07T09:17:28.563Z,18.80
2023-05-07T09:19:57.307Z,18.67
2023-05-07T09:22:23.897Z,18.84
2023-05-07T09:24:51.433Z,18.95
2023-05-07T09:27:18.794Z,19.34
2023-05-07T09:29:45.641Z,19.29
2023-05-07T09:32:12.297Z,19.29
2023-05-07T09:34:39.109Z,19.26
2023-05-07T09:37:07.287Z,19.71
2023-05-07T09:39:45.050Z,19.77
2023-05-07T09:42:12.423Z,19.36
2023-05-07T09:44:39.980Z,19.52
2023-05-07T09:47:07.709Z,19.79
2023-05-07T09:49:38.917Z,19.93
2023-05-07T09:52:07.620Z,19.67
2023-05-07T09:54:34.489Z,19.92
2023-05-07T09:57:03.097Z,20.01
2023-05-07T09:59:32.686Z,20.22
2023-05-07T10:02:02.145Z,20.20
2023-05-07T10:04:32.104Z,19.81
2023-05-07T10:06:59.992Z,19.69
2023-05-07T10:09:27.556Z,19.37
2023-05-07T10:11:55.461Z,19.83
2023-05-07T10:14:22.999Z,19.75
2023-05-07T10:16:49.840Z,19.72
2023-05-07T10:19:16.517Z,19.87
2023-05-07T10:21:46.114Z,19.44
2023-05-07T10:24:27.685Z,19.24
2023-05-07T10:26:56.757Z,19.56
2023-05-07T10:30:11.734Z,19.56
2023-05-07T10:32:44.751Z,19.50
2023-05-07T10:35:22.759Z,19.30
2023-05-07T10:37:49.786Z,19.18
2023-05-07T10:40:16.629Z,19.39
2023-05-07T10:42:59.861Z,19.14
2023-05-07T10:45:27.029Z,18.89
2023-05-07T10:48:29.017Z,18.90
2023-05-07T10:51:19.930Z,18.92
2023-05-07T10:53:46.693Z,18.83
2023-05-07T10:56:19.503Z,18.66
2023-05-07T10:58:46.227Z,19.12
2023-05-07T11:01:12.863Z,19.20
2023-05-07T11:04:15.127Z,19.09
2023-05-07T11:06:41.967Z,19.68
2023-05-07T11:09:08.708Z,19.20
2023-05-07T11:11:49.219Z,19.42
2023-05-07T11:14:45.203Z,19.55
2023-05-07T11:17:12.367Z,19.52
2023-05-07T11:19:56.416Z,19.50
2023-05-07T11:22:32.139Z,19.78
2023-05-07T11:25:03.140Z,19.70
2023-05-07T11:27:30.624Z,19.90
2023-05-07T11:29:57.604Z,19.80
2023-05-07T11:32:25.003Z,20.28
2023-05-07T11:34:59.811Z,20.62
2023-05-07T11:37:28.276Z,20.65
2023-05-07T11:40:07.479Z,20.51
2023-05-07T11:42:36.917Z,21.14
2023-05-07T11:45:03.744Z,20.76
2023-05-07T11:47:34.781Z,20.63
2023-05-07T11:50:10.342Z,20.75
2023-05-07T11:52:37.083Z,20.86
2023-05-07T11:55:04.777Z,20.40
2023-05-07T11:57:34.059Z,20.46
2023-05-07T12:00:02.330Z,20.90
2023-05-07T12:02:29.130Z,20.52
2023-05-07T12:04:56.017Z,20.68
2023-05-07T12:07:25.259Z,21.03
2023-05-07T12:09:52.001Z,21.18
2023-05-07T12:12:18.660Z,21.43
2023-05-07T12:14:46.588Z,21.11
2023-05-07T12:17:15.406Z,21.69
2023-05-07T12:19:44.621Z,21.40
2023-05-07T12:22:11.915Z,21.41
2023-05-07T12:24:58.286Z,21.45
2023-05-07T12:27:25.400Z,21.56
2023-05-07T12:29:52.009Z,21.85
2023-05-07T12:32:20.586Z,21.90
2023-05-07T12:34:50.755Z,22.12
2023-05-07T12:37:18.115Z,22.06
2023-05-07T12:40:05.032Z,22.08
2023-05-07T12:42:36.387Z,21.88
2023-05-07T12:45:29.433Z,21.62
2023-05-07T12:47:56.176Z,21.89
2023-05-07T12:50:23.825Z,21.92
2023-05-07T12:52:50.526Z,22.23
2023-05-07T12:55:17.880Z,21.84
2023-05-07T12:57:49.037Z,21.83
2023-05-07T13:00:16.375Z,22.05
2023-05-07T13:02:44.542Z,21.98
2023-05-07T13:05:11.452Z,22.20
2023-05-07T13:07:38.762Z,22.14
2023-05-07T13:10:06.174Z,21.35
2023-05-07T13:12:32.849Z,21.09
2023-05-07T13:15:01.744Z,21.43
2023-05-07T13:17:28.383Z,21.32
2023-05-07T13:19:55.103Z,21.57
2023-05-07T13:22:21.785Z,21.51
2023-05-07T13:24:48.372Z,21.46
2023-05-07T13:27:15.092Z,21.19
2023-05-07T13:29:41.742Z,21.09
2023-05-07T13:32:08.459Z,21.25
2023-05-07T13:34:35.162Z,21.77
2023-05-07T13:37:01.891Z,21.51
2023-05-07T13:39:28.511Z,21.51
2023-05-07T13:41:55.108Z,21.78
2023-05-07T13:44:21.709Z,22.13
2023-05-07T13:46:48.355Z,22.32
2023-05-07T13:49:15.018Z,22.52
2023-05-07T13:51:41.617Z,22.48
2023-05-07T13:54:08.362Z,22.29
2023-05-07T13:56:35.162Z,22.21
2023-05-07T13:59:01.931Z,22.20
2023-05-07T14:01:28.889Z,22.74
2023-05-07T14:03:57.108Z,22.79
2023-05-07T14:06:24.145Z,22.78
2023-05-07T14:08:50.844Z,22.38
2023-05-07T14:11:17.486Z,22.62
2023-05-07T14:13:44.203Z,22.42
2023-05-07T14:16:10.825Z,22.38
2023-05-07T14:18:37.457Z,22.48
2023-05-07T14:21:05.066Z,22.46
2023-05-07T14:23:31.680Z,22.24
2023-05-07T14:25:58.284Z,21.99
2023-05-07T14:28:25.226Z,22.29
2023-05-07T14:30:51.866Z,21.80
2023-05-07T14:33:18.564Z,21.70
2023-05-07T14:35:45.181Z,22.14
2023-05-07T14:38:14.462Z,22.42
2023-05-07T14:40:41.128Z,22.16
2023-05-07T14:43:07.709Z,22.10
2023-05-07T14:45:34.336Z,22.11
2023-05-07T14:48:01.611Z,22.07
2023-05-07T14:50:28.201Z,21.96
2023-05-07T14:52:54.829Z,21.89
2023-05-07T14:55:21.548Z,21.73
2023-05-07T14:57:48.375Z,21.79
2023-05-07T15:00:15.127Z,22.18
2023-05-07T15:02:41.948Z,21.88
2023-05-07T15:05:08.937Z,21.61
2023-05-07T15:07:35.580Z,21.94
2023-05-07T15:10:02.257Z,21.75
2023-05-07T15:12:28.900Z,22.00
2023-05-07T15:14:55.501Z,22.11
2023-05-07T15:17:22.185Z,22.24
2023-05-07T15:19:48.785Z,21.89
2023-05-07T15:22:15.432Z,22.06
2023-05-07T15:24:42.085Z,21.78
2023-05-07T15:27:08.711Z,21.78
2023-05-07T15:29:35.389Z,21.86
2023-05-07T15:32:02.356Z,21.91
2023-05-07T15:34:29.009Z,21.35
2023-05-07T15:36:56.271Z,21.40
2023-05-07T15:39:24.902Z,21.17
2023-05-07T15:41:51.791Z,21.12
2023-05-07T15:44:18.402Z,21.22
2023-05-07T15:46:45.056Z,21.49
2023-05-07T15:49:11.761Z,21.40
2023-05-07T15:51:38.603Z,21.23
2023-05-07T15:54:08.166Z,21.41
2023-05-07T15:56:34.805Z,21.47
2023-05-07T15:59:01.455Z,21.12
2023-05-07T16:01:28.621Z,20.89
2023-05-07T16:03:55.515Z,20.65
2023-05-07T16:06:22.189Z,20.57
2023-05-07T16:08:48.793Z,20.63
2023-05-07T16:11:15.382Z,20.17
2023-05-07T16:13:42.087Z,20.24
2023-05-07T16:16:08.778Z,20.33
2023-05-07T16:18:35.461Z,20.09
2023-05-07T16:21:02.059Z,20.40
2023-05-07T16:23:28.714Z,20.13
2023-05-07T16:25:55.347Z,20.52
2023-05-07T16:28:25.499Z,20.64
2023-05-07T16:30:52.579Z,20.64
2023-05-07T16:33:19.468Z,20.21
2023-05-07T16:35:51.790Z,19.84
2023-05-07T16:38:18.422Z,19.83
2023-05-07T16:40:45.096Z,19.81
2023-05-07T16:43:11.695Z,19.55
2023-05-07T16:45:38.323Z,19.80
2023-05-07T16:48:05.313Z,19.58
2023-05-07T16:50:31.949Z,19.43
2023-05-07T16:52:58.668Z,19.43
2023-05-07T16:55:25.277Z,19.35
2023-05-07T16:57:52.249Z,18.98
2023-05-07T17:00:19.012Z,19.20
2023-05-07T17:02:45.864Z,19.15
2023-05-07T17:05:12.860Z,19.04
2023-05-07T17:07:39.663Z,19.18
2023-05-07T17:10:06.754Z,19.27
2023-05-07T17:12:33.397Z,19.21
2023-05-07T17:15:01.336Z,18.91
2023-05-07T17:17:27.992Z,18.73
2023-05-07T17:19:54.812Z,18.83
2023-05-07T17:22:21.571Z,18.76
2023-05-07T17:24:48.159Z,18.80
2023-05-07T17:27:14.799Z,18.06
2023-05-07T17:29:41.547Z,18.33
2023-05-07T17:32:08.705Z,18.23
2023-05-07T17:34:35.698Z,18.02
2023-05-07T17:37:02.744Z,18.02
2023-05-07T17:39:29.728Z,18.01
2023-05-07T17:41:56.570Z,18.20
2023-05-07T17:44:23.201Z,17.73
2023-05-07T17:46:50.251Z,17.82
2023-05-07T17:49:17.004Z,17.59
2023-05-07T17:51:54.048Z,17.52
2023-05-07T17:54:22.556Z,17.61
2023-05-07T17:56:49.223Z,17.37
2023-05-07T17:59:15.957Z,17.28
2023-05-07T18:01:42.691Z,16.89
2023-05-07T18:04:09.703Z,17.09
2023-05-07T18:06:36.391Z,17.01
2023-05-07T18:09:03.085Z,16.72
2023-05-07T18:11:29.814Z,16.66
2023-05-07T18:13:56.430Z,16.57
2023-05-07T18:16:23.412Z,16.70
2023-05-07T18:18:50.067Z,16.44
2023-05-07T18:21:16.695Z,16.36
2023-05-07T18:23:43.312Z,16.39
2023-05-07T18:26:09.903Z,16.49
2023-05-07T18:28:36.648Z,16.27
2023-05-07T18:31:04.994Z,16.66
2023-05-07T18:33:32.034Z,16.57
2023-05-07T18:35:58.731Z,16.53
2023-05-07T18:38:25.317Z,16.38
2023-05-07T18:40:51.954Z,16.50
2023-05-07T18:43:19.487Z,17.17
2023-05-07T18:45:49.311Z,17.29
2023-05-07T18:48:17.267Z,17.38
2023-05-07T18:50:44.003Z,16.93
2023-05-07T18:53:10.684Z,16.61
2023-05-07T18:55:40.215Z,16.66
2023-05-07T18:58:07.431Z,16.50
2023-05-07T19:00:34.374Z,16.29
2023-05-07T19:03:01.033Z,16.29
2023-05-07T19:05:27.647Z,15.95
2023-05-07T19:07:54.310Z,15.88
2023-05-07T19:10:21.111Z,15.66
2023-05-07T19:12:47.892Z,15.46
2023-05-07T19:15:14.498Z,15.53
2023-05-07T19:17:41.212Z,15.79
2023-05-07T19:20:08.763Z,15.53
2023-05-07T19:22:36.741Z,14.75
2023-05-07T19:25:03.578Z,15.11
2023-05-07T19:27:30.232Z,15.00
2023-05-07T19:29:57.896Z,15.02
2023-05-07T19:32:26.597Z,15.10
2023-05-07T19:34:53.247Z,14.54
2023-05-07T19:37:22.921Z,14.33
2023-05-07T19:39:49.683Z,14.09
2023-05-07T19:42:16.399Z,14.03
2023-05-07T19:44:43.104Z,14.03
2023-05-07T19:47:09.804Z,13.94
2023-05-07T19:49:36.415Z,14.11
2023-05-07T19:52:03.744Z,14.41
2023-05-07T19:54:30.457Z,14.14
2023-05-07T19:56:57.083Z,14.51
2023-05-07T19:59:24.461Z,14.35
2023-05-07T20:01:51.203Z,14.40
2023-05-07T20:04:18.044Z,14.18
2023-05-07T20:06:44.680Z,14.12
2023-05-07T20:09:11.317Z,14.24
2023-05-07T20:11:38.914Z,14.40
2023-05-07T20:14:05.819Z,14.34
2023-05-07T20:16:33.340Z,14.34
2023-05-07T20:19:00.159Z,14.59
2023-05-07T20:21:26.813Z,14.64
2023-05-07T20:23:53.581Z,13.90
2023-05-07T20:26:20.183Z,14.03
2023-05-07T20:28:46.861Z,14.20
2023-05-07T20:31:13.544Z,14.13
2023-05-07T20:33:40.206Z,14.29
2023-05-07T20:36:07.702Z,14.20
2023-05-07T20:38:34.362Z,13.86
2023-05-07T20:41:08.073Z,13.74
2023-05-07T20:43:35.285Z,13.64
2023-05-07T20:46:02.505Z,13.66
2023-05-07T20:48:30.099Z,13.24
2023-05-07T20:50:57.880Z,12.37
2023-05-07T20:53:24.982Z,12.46
2023-05-07T20:55:52.133Z,12.61
2023-05-07T20:58:18.884Z,12.63
2023-05-07T21:00:45.661Z,12.46
2023-05-07T21:03:12.345Z,12.05
2023-05-07T21:05:38.972Z,12.18
2023-05-07T21:08:05.608Z,12.15
2023-05-07T21:10:32.188Z,11.75
2023-05-07T21:12:59.008Z,11.70
2023-05-07T21:15:25.807Z,11.67
2023-05-07T21:17:52.617Z,11.77
2023-05-07T21:20:19.287Z,11.93
2023-05-07T21:22:45.953Z,12.00
2023-05-07T21:25:13.435Z,12.21
2023-05-07T21:27:40.298Z,12.01
2023-05-07T21:30:07.668Z,11.77
2023-05-07T21:32:34.433Z,12.02
2023-05-07T21:35:01.120Z,12.14
2023-05-07T21:37:27.810Z,12.09
2023-05-07T21:39:54.441Z,12.33
2023-05-07T21:42:23.066Z,12.39
2023-05-07T21:44:50.072Z,12.13
2023-05-07T21:47:16.691Z,12.06
2023-05-07T21:49:43.582Z,12.28
2023-05-07T21:52:14.449Z,12.32
2023-05-07T21:54:44.013Z,11.93
2023-05-07T21:57:10.712Z,12.20
2023-05-07T21:59:37.380Z,12.14
2023-05-07T22:02:04.138Z,11.95
2023-05-07T22:04:30.788Z,11.73
2023-05-07T22:06:57.470Z,11.59
2023-05-07T22:09:24.089Z,11.45
2023-05-07T22:11:50.714Z,11.57
2023-05-07T22:14:18.950Z,11.59
2023-05-07T22:16:46.328Z,11.54
2023-05-07T22:19:12.924Z,11.62
2023-05-07T22:21:39.705Z,11.56
2023-05-07T22:24:07.088Z,11.51
2023-05-07T22:26:34.192Z,11.77
2023-05-07T22:29:00.815Z,11.53
2023-05-07T22:31:27.469Z,11.49
2023-05-07T22:33:54.149Z,11.44
2023-05-07T22:36:20.845Z,11.49
2023-05-07T22:38:47.501Z,11.26
2023-05-07T22:41:14.090Z,11.11
2023-05-07T22:43:40.707Z,11.15
2023-05-07T22:46:07.379Z,11.47
2023-05-07T22:48:34.062Z,11.25
2023-05-07T22:51:00.732Z,10.95
2023-05-07T22:53:27.489Z,10.84
2023-05-07T22:55:54.097Z,11.01
2023-05-07T22:58:20.792Z,11.13
2023-05-07T23:00:47.705Z,11.19
2023-05-07T23:03:14.376Z,10.97
2023-05-07T23:05:41.100Z,10.98
2023-05-07T23:08:07.727Z,10.88
2023-05-07T23:10:34.559Z,10.74
2023-05-07T23:13:01.656Z,10.96
2023-05-07T23:15:28.393Z,11.13
2023-05-07T23:17:55.090Z,11.09
2023-05-07T23:20:22.533Z,10.92
2023-05-07T23:22:49.185Z,10.42
2023-05-07T23:25:15.841Z,10.00
2023-05-07T23:27:42.510Z,10.52
2023-05-07T23:30:10.027Z,10.69
2023-05-07T23:32:36.969Z,10.89
2023-05-07T23:35:03.736Z,10.96
2023-05-07T23:37:30.320Z,10.82
2023-05-07T23:39:56.935Z,10.65
2023-05-07T23:42:23.612Z,10.67
2023-05-07T23:44:50.262Z,10.63
2023-05-07T23:47:16.916Z,10.51
2023-05-07T23:49:43.604Z,10.07
2023-05-07T23:52:10.532Z,10.14
2023-05-07T23:54:37.099Z,10.40
2023-05-07T23:57:03.913Z,10.43
2023-05-07T23:59:30.552Z,10.47
